createdAt,value
2023-03-08T00:01:49.853Z,3.87
2023-03-08T00:04:18.108Z,4.37
2023-03-08T00:06:46.307Z,4.07
2023-03-08T00:09:14.460Z,3.80
2023-03-08T00:11:42.604Z,3.30
2023-03-08T00:14:10.737Z,3.73
2023-03-08T00:16:40.255Z,4.00
2023-03-08T00:19:08.401Z,3.37
2023-03-08T00:21:36.544Z,4.10
2023-03-08T00:24:04.741Z,4.23
2023-03-08T00:26:32.923Z,3.77
2023-03-08T00:29:01.162Z,4.63
2023-03-08T00:31:29.550Z,3.97
2023-03-08T00:33:59.038Z,3.77
2023-03-08T00:36:27.293Z,4.20
2023-03-08T00:38:55.493Z,4.30
2023-03-08T00:41:23.868Z,4.20
2023-03-08T00:43:52.019Z,4.30
2023-03-08T00:46:20.225Z,3.53
2023-03-08T00:48:48.436Z,4.40
2023-03-08T00:51:18.550Z,3.97
2023-03-08T00:53:46.860Z,5.13
2023-03-08T00:56:15.206Z,4.30
2023-03-08T00:58:43.455Z,4.40
2023-03-08T01:01:15.113Z,3.90
2023-03-08T01:03:43.353Z,5.17
2023-03-08T01:06:12.663Z,4.30
2023-03-08T01:08:42.274Z,4.10
2023-03-08T01:11:16.208Z,3.63
2023-03-08T01:13:44.376Z,4.40
2023-03-08T01:16:16.844Z,3.77
2023-03-08T01:18:45.188Z,4.03
2023-03-08T01:21:13.585Z,3.43
2023-03-08T01:23:43.224Z,3.57
2023-03-08T01:26:13.180Z,4.30
2023-03-08T01:28:41.400Z,3.77
2023-03-08T01:31:10.608Z,3.60
2023-03-08T01:33:38.779Z,3.60
2023-03-08T01:36:07.118Z,3.80
2023-03-08T01:38:35.404Z,3.93
2023-03-08T01:41:06.039Z,3.50
2023-03-08T01:43:35.155Z,3.80
2023-03-08T01:46:13.869Z,3.77
2023-03-08T01:48:45.035Z,3.77
2023-03-08T01:51:14.938Z,3.37
2023-03-08T01:53:44.142Z,3.97
2023-03-08T01:56:15.495Z,3.97
2023-03-08T01:58:45.629Z,4.73
2023-03-08T02:01:13.818Z,3.63
2023-03-08T02:03:42.085Z,4.33
2023-03-08T02:06:10.330Z,3.60
2023-03-08T02:08:38.506Z,4.33
2023-03-08T02:11:07.008Z,4.13
2023-03-08T02:13:36.533Z,3.93
2023-03-08T02:16:06.477Z,3.50
2023-03-08T02:18:34.640Z,3.80
2023-03-08T02:21:02.978Z,4.00
2023-03-08T02:23:32.519Z,4.20
2023-03-08T02:26:02.329Z,3.90
2023-03-08T02:28:31.068Z,4.20
2023-03-08T02:30:59.224Z,4.27
2023-03-08T02:33:27.496Z,4.00
2023-03-08T02:35:55.693Z,3.83
2023-03-08T02:38:23.952Z,4.10
2023-03-08T02:40:53.447Z,4.07
2023-03-08T02:43:22.038Z,3.60
2023-03-08T02:45:50.739Z,4.20
2023-03-08T02:48:19.236Z,3.73
2023-03-08T02:50:47.402Z,3.60
2023-03-08T02:53:15.569Z,4.03
2023-03-08T02:55:43.762Z,3.27
2023-03-08T02:58:13.286Z,4.07
2023-03-08T03:00:41.918Z,3.43
2023-03-08T03:03:10.096Z,3.57
2023-03-08T03:05:42.268Z,3.67
2023-03-08T03:08:10.453Z,3.10
2023-03-08T03:10:42.080Z,3.43
2023-03-08T03:13:10.314Z,3.63
2023-03-08T03:15:41.138Z,3.90
2023-03-08T03:18:09.300Z,4.07
2023-03-08T03:20:37.467Z,4.27
2023-03-08T03:23:06.355Z,4.70
2023-03-08T03:25:38.098Z,5.27
2023-03-08T03:28:06.414Z,4.47
2023-03-08T03:30:34.929Z,3.63
2023-03-08T03:33:04.443Z,4.30
2023-03-08T03:35:32.640Z,3.73
2023-03-08T03:38:00.824Z,4.10
2023-03-08T03:40:29.020Z,4.20
2023-03-08T03:42:57.174Z,4.50
2023-03-08T03:45:25.399Z,4.17
2023-03-08T03:47:53.518Z,3.97
2023-03-08T03:50:23.047Z,3.87
2023-03-08T03:52:51.297Z,4.10
2023-03-08T03:55:19.459Z,4.37
2023-03-08T03:57:47.626Z,4.43
2023-03-08T04:00:16.348Z,4.87
2023-03-08T04:02:44.520Z,4.67
2023-03-08T04:05:12.714Z,4.07
2023-03-08T04:07:42.217Z,4.17
2023-03-08T04:10:10.748Z,3.90
2023-03-08T04:12:38.899Z,3.87
2023-03-08T04:15:07.918Z,4.03
2023-03-08T04:17:36.063Z,3.93
2023-03-08T04:20:06.587Z,4.07
2023-03-08T04:22:34.741Z,3.80
2023-03-08T04:25:04.233Z,3.97
2023-03-08T04:27:32.382Z,3.87
2023-03-08T04:30:00.509Z,3.93
2023-03-08T04:32:28.702Z,4.10
2023-03-08T04:34:56.904Z,4.20
2023-03-08T04:37:25.098Z,3.67
2023-03-08T04:39:53.388Z,3.57
2023-03-08T04:42:22.884Z,3.17
2023-03-08T04:44:51.044Z,3.23
2023-03-08T04:47:19.180Z,3.23
2023-03-08T04:49:47.359Z,2.97
2023-03-08T04:52:15.523Z,3.27
2023-03-08T04:54:43.702Z,2.70
2023-03-08T04:57:11.832Z,2.73
2023-03-08T04:59:41.336Z,2.80
2023-03-08T05:02:09.548Z,2.40
2023-03-08T05:04:37.818Z,2.60
2023-03-08T05:07:06.010Z,2.73
2023-03-08T05:09:34.178Z,2.83
2023-03-08T05:12:02.363Z,2.77
2023-03-08T05:14:30.503Z,2.90
2023-03-08T05:17:02.441Z,3.07
2023-03-08T05:19:30.774Z,3.37
2023-03-08T05:21:58.938Z,3.37
2023-03-08T05:24:27.282Z,3.90
2023-03-08T05:26:55.422Z,3.47
2023-03-08T05:29:23.774Z,3.00
2023-03-08T05:31:51.984Z,3.77
2023-03-08T05:34:21.481Z,3.90
2023-03-08T05:36:49.616Z,3.37
2023-03-08T05:39:17.786Z,3.37
2023-03-08T05:41:45.925Z,3.73
2023-03-08T05:44:14.084Z,3.50
2023-03-08T05:46:42.253Z,3.50
2023-03-08T05:49:10.404Z,3.77
2023-03-08T05:51:39.898Z,4.13
2023-03-08T05:54:08.322Z,3.50
2023-03-08T05:56:36.493Z,3.27
2023-03-08T05:59:04.689Z,3.40
2023-03-08T06:01:32.835Z,3.50
2023-03-08T06:04:01.000Z,3.10
2023-03-08T06:06:29.381Z,3.70
2023-03-08T06:08:58.914Z,3.70
2023-03-08T06:11:27.123Z,3.17
2023-03-08T06:13:55.361Z,3.03
2023-03-08T06:16:23.733Z,3.07
2023-03-08T06:18:51.933Z,2.80
2023-03-08T06:21:21.157Z,3.17
2023-03-08T06:23:49.492Z,3.17
2023-03-08T06:26:19.078Z,3.43
2023-03-08T06:28:47.269Z,2.60
2023-03-08T06:31:16.293Z,3.33
2023-03-08T06:33:44.614Z,2.80
2023-03-08T06:36:13.855Z,2.93
2023-03-08T06:38:43.094Z,2.83
2023-03-08T06:41:12.550Z,2.90
2023-03-08T06:43:42.035Z,3.27
2023-03-08T06:46:11.936Z,2.90
2023-03-08T06:48:40.733Z,3.07
2023-03-08T06:51:09.280Z,3.07
2023-03-08T06:53:38.085Z,3.77
2023-03-08T06:56:06.885Z,4.00
2023-03-08T06:58:35.391Z,3.43
2023-03-08T07:01:05.631Z,3.83
2023-03-08T07:03:33.949Z,3.63
2023-03-08T07:06:02.463Z,3.47
2023-03-08T07:08:31.101Z,3.93
2023-03-08T07:10:59.916Z,4.40
2023-03-08T07:13:28.992Z,4.03
2023-03-08T07:15:57.717Z,4.20
2023-03-08T07:18:27.273Z,3.80
2023-03-08T07:20:55.473Z,3.40
2023-03-08T07:23:23.666Z,4.03
2023-03-08T07:25:51.870Z,4.20
2023-03-08T07:28:20.115Z,3.90
2023-03-08T07:30:49.079Z,3.67
2023-03-08T07:33:17.373Z,3.77
2023-03-08T07:35:46.960Z,4.33
2023-03-08T07:38:15.290Z,4.63
2023-03-08T07:40:43.562Z,4.70
2023-03-08T07:43:11.735Z,4.70
2023-03-08T07:45:40.445Z,4.07
2023-03-08T07:48:08.651Z,4.83
2023-03-08T07:50:36.877Z,4.90
2023-03-08T07:53:07.747Z,5.37
2023-03-08T07:55:35.921Z,6.40
2023-03-08T07:58:04.090Z,5.77
2023-03-08T08:00:32.418Z,6.70
2023-03-08T08:03:00.603Z,7.17
2023-03-08T08:05:28.832Z,6.57
2023-03-08T08:07:57.024Z,5.93
2023-03-08T08:10:26.627Z,6.60
2023-03-08T08:12:54.774Z,5.90
2023-03-08T08:15:25.148Z,6.27
2023-03-08T08:17:53.931Z,5.43
2023-03-08T08:20:22.080Z,6.20
2023-03-08T08:22:53.206Z,5.90
2023-03-08T08:25:21.821Z,6.30
2023-03-08T08:27:51.526Z,5.33
2023-03-08T08:30:19.737Z,5.93
2023-03-08T08:32:47.956Z,5.63
2023-03-08T08:35:16.138Z,6.33
2023-03-08T08:37:44.293Z,6.20
2023-03-08T08:40:13.162Z,6.17
2023-03-08T08:42:41.426Z,6.43
2023-03-08T08:45:11.628Z,7.03
2023-03-08T08:47:39.798Z,6.50
2023-03-08T08:50:08.135Z,6.30
2023-03-08T08:52:36.289Z,6.67
2023-03-08T08:55:04.822Z,6.60
2023-03-08T08:57:33.004Z,6.57
2023-03-08T09:00:01.325Z,6.63
2023-03-08T09:02:30.833Z,6.37
2023-03-08T09:04:59.066Z,7.03
2023-03-08T09:07:27.265Z,7.50
2023-03-08T09:09:56.054Z,7.60
2023-03-08T09:12:24.203Z,7.07
2023-03-08T09:14:52.331Z,6.83
2023-03-08T09:17:20.512Z,7.30
2023-03-08T09:19:50.100Z,7.40
2023-03-08T09:22:18.358Z,6.73
2023-03-08T09:24:46.630Z,6.70
2023-03-08T09:27:14.760Z,7.30
2023-03-08T09:29:42.894Z,7.13
2023-03-08T09:32:11.130Z,7.67
2023-03-08T09:34:39.387Z,7.57
2023-03-08T09:37:08.918Z,7.10
2023-03-08T09:39:38.496Z,6.77
2023-03-08T09:42:07.689Z,7.33
2023-03-08T09:44:54.549Z,7.63
2023-03-08T09:47:29.269Z,7.23
2023-03-08T09:50:00.694Z,7.70
2023-03-08T09:52:33.342Z,7.47
2023-03-08T09:55:02.591Z,7.50
2023-03-08T09:57:32.434Z,7.73
2023-03-08T10:00:04.396Z,7.57
2023-03-08T10:02:38.037Z,7.57
2023-03-08T10:05:15.519Z,7.70
2023-03-08T10:07:51.041Z,8.30
2023-03-08T10:10:27.716Z,7.97
2023-03-08T10:13:05.555Z,8.10
2023-03-08T10:15:34.939Z,8.20
2023-03-08T10:18:05.821Z,7.37
2023-03-08T10:20:37.307Z,8.17
2023-03-08T10:23:14.527Z,8.20
2023-03-08T10:25:42.684Z,8.30
2023-03-08T10:28:13.733Z,9.07
2023-03-08T10:30:43.866Z,8.37
2023-03-08T10:33:13.067Z,8.90
2023-03-08T10:35:54.288Z,9.47
2023-03-08T10:38:24.704Z,8.30
2023-03-08T10:41:00.484Z,8.53
2023-03-08T10:43:29.685Z,9.43
2023-03-08T10:46:02.535Z,8.93
2023-03-08T10:48:30.779Z,8.80
2023-03-08T10:51:02.554Z,8.37
2023-03-08T10:53:32.447Z,8.27
2023-03-08T10:56:01.802Z,8.23
2023-03-08T10:58:32.121Z,9.23
2023-03-08T11:01:01.302Z,8.70
2023-03-08T11:03:29.866Z,8.07
2023-03-08T11:05:59.444Z,8.77
2023-03-08T11:08:29.362Z,8.30
2023-03-08T11:11:09.269Z,8.83
2023-03-08T11:13:38.495Z,7.57
2023-03-08T11:16:13.901Z,8.10
2023-03-08T11:18:48.615Z,8.27
2023-03-08T11:21:21.720Z,8.33
2023-03-08T11:23:55.600Z,9.00
2023-03-08T11:26:28.961Z,9.10
2023-03-08T11:29:04.724Z,8.57
2023-03-08T11:31:37.428Z,7.87
2023-03-08T11:34:23.331Z,7.10
2023-03-08T11:36:56.229Z,8.57
2023-03-08T11:39:28.287Z,7.37
2023-03-08T11:42:01.892Z,7.97
2023-03-08T11:44:36.561Z,7.83
2023-03-08T11:47:19.593Z,7.40
2023-03-08T11:49:54.405Z,7.60
2023-03-08T11:52:28.533Z,7.37
2023-03-08T11:55:01.847Z,7.60
2023-03-08T11:57:34.442Z,7.27
2023-03-08T12:00:11.583Z,6.80
2023-03-08T12:02:40.338Z,7.07
2023-03-08T12:05:11.768Z,6.73
2023-03-08T12:07:41.513Z,7.07
2023-03-08T12:10:16.447Z,7.10
2023-03-08T12:12:48.430Z,6.90
2023-03-08T12:15:23.328Z,7.30
2023-03-08T12:17:54.734Z,6.57
2023-03-08T12:20:23.439Z,6.70
2023-03-08T12:22:53.912Z,6.33
2023-03-08T12:25:28.920Z,6.73
2023-03-08T12:28:01.693Z,5.67
2023-03-08T12:30:37.997Z,6.17
2023-03-08T12:33:07.109Z,6.77
2023-03-08T12:35:36.602Z,6.37
2023-03-08T12:38:07.349Z,6.43
2023-03-08T12:40:41.905Z,6.57
2023-03-08T12:43:13.087Z,6.50
2023-03-08T12:45:41.841Z,6.50
2023-03-08T12:48:16.235Z,6.10
2023-03-08T12:50:45.894Z,6.17
2023-03-08T12:53:25.088Z,5.90
2023-03-08T12:56:03.432Z,5.90
2023-03-08T12:58:34.057Z,6.17
2023-03-08T13:01:03.311Z,6.40
2023-03-08T13:03:38.178Z,6.37
2023-03-08T13:06:16.702Z,5.73
2023-03-08T13:08:50.948Z,6.20
2023-03-08T13:11:19.724Z,6.17
2023-03-08T13:13:52.999Z,5.30
2023-03-08T13:16:23.157Z,5.90
2023-03-08T13:18:55.066Z,6.20
2023-03-08T13:21:31.048Z,6.87
2023-03-08T13:24:02.022Z,6.40
2023-03-08T13:26:50.638Z,6.07
2023-03-08T13:29:21.400Z,6.13
2023-03-08T13:31:49.795Z,5.73
2023-03-08T13:34:28.983Z,6.07
2023-03-08T13:36:57.217Z,5.90
2023-03-08T13:39:26.682Z,5.97
2023-03-08T13:41:55.276Z,6.00
2023-03-08T13:44:25.624Z,6.10
2023-03-08T13:46:55.758Z,6.50
2023-03-08T13:49:25.896Z,6.83
2023-03-08T13:51:55.592Z,6.03
2023-03-08T13:54:29.357Z,6.13
2023-03-08T13:56:57.776Z,5.20
2023-03-08T13:59:27.807Z,6.90
2023-03-08T14:01:56.169Z,7.60
2023-03-08T14:04:25.668Z,9.60
2023-03-08T14:06:54.598Z,10.67
2023-03-08T14:09:23.142Z,10.73
2023-03-08T14:11:57.417Z,10.50
2023-03-08T14:14:28.920Z,10.40
2023-03-08T14:16:57.608Z,12.57
2023-03-08T14:19:27.002Z,11.33
2023-03-08T14:21:57.258Z,11.43
2023-03-08T14:24:26.721Z,11.13
2023-03-08T14:26:56.342Z,11.23
2023-03-08T14:29:25.158Z,11.00
2023-03-08T14:31:56.079Z,11.63
2023-03-08T14:34:25.376Z,11.53
2023-03-08T14:36:55.399Z,12.30
2023-03-08T14:39:24.969Z,13.10
2023-03-08T14:41:53.158Z,12.17
2023-03-08T14:44:22.672Z,14.37
2023-03-08T14:46:58.118Z,14.70
2023-03-08T14:49:28.937Z,12.87
2023-03-08T14:51:57.348Z,15.03
2023-03-08T14:54:32.724Z,13.53
2023-03-08T14:57:01.287Z,16.90
2023-03-08T14:59:29.462Z,15.93
2023-03-08T15:01:57.692Z,13.50
2023-03-08T15:04:27.061Z,14.23
2023-03-08T15:06:56.591Z,13.43
2023-03-08T15:09:26.167Z,13.97
2023-03-08T15:11:58.332Z,14.10
2023-03-08T15:14:26.479Z,14.97
2023-03-08T15:16:55.157Z,14.40
2023-03-08T15:19:23.411Z,14.07
2023-03-08T15:21:51.719Z,15.77
2023-03-08T15:24:21.477Z,17.33
2023-03-08T15:26:49.618Z,16.20
2023-03-08T15:29:25.812Z,16.87
2023-03-08T15:31:54.028Z,15.53
2023-03-08T15:34:22.601Z,15.23
2023-03-08T15:36:51.294Z,14.13
2023-03-08T15:39:21.124Z,14.60
2023-03-08T15:41:49.353Z,14.00
2023-03-08T15:44:17.715Z,14.73
2023-03-08T15:46:45.950Z,12.60
2023-03-08T15:49:14.126Z,14.70
2023-03-08T15:51:42.282Z,13.20
2023-03-08T15:54:12.535Z,12.60
2023-03-08T15:56:42.062Z,12.97
2023-03-08T15:59:10.224Z,13.40
2023-03-08T16:01:38.448Z,13.40
2023-03-08T16:04:06.684Z,13.90
2023-03-08T16:06:34.817Z,14.17
2023-03-08T16:09:03.054Z,12.80
2023-03-08T16:11:32.977Z,12.93
2023-03-08T16:14:02.630Z,12.80
2023-03-08T16:16:44.266Z,13.73
2023-03-08T16:19:13.559Z,14.73
2023-03-08T16:21:41.714Z,14.33
2023-03-08T16:24:09.994Z,14.10
2023-03-08T16:26:38.162Z,19.17
2023-03-08T16:29:07.698Z,22.10
2023-03-08T16:31:35.957Z,15.03
2023-03-08T16:34:04.780Z,12.93
2023-03-08T16:36:33.028Z,13.33
2023-03-08T16:39:01.461Z,14.03
2023-03-08T16:41:30.010Z,13.30
2023-03-08T16:43:58.208Z,14.03
2023-03-08T16:46:27.814Z,15.10
2023-03-08T16:48:56.702Z,16.07
2023-03-08T16:51:25.786Z,14.53
2023-03-08T16:53:54.280Z,15.03
2023-03-08T16:56:23.467Z,14.63
2023-03-08T16:58:51.623Z,14.50
2023-03-08T17:01:20.462Z,16.20
2023-03-08T17:03:50.227Z,15.03
2023-03-08T17:06:19.772Z,14.17
2023-03-08T17:08:48.100Z,14.97
2023-03-08T17:11:16.746Z,13.37
2023-03-08T17:13:44.889Z,14.60
2023-03-08T17:16:13.616Z,14.27
2023-03-08T17:18:41.800Z,14.97
2023-03-08T17:21:11.332Z,14.53
2023-03-08T17:23:39.532Z,14.07
2023-03-08T17:26:08.209Z,14.47
2023-03-08T17:28:36.498Z,23.20
2023-03-08T17:31:08.744Z,18.77
2023-03-08T17:33:40.213Z,17.20
2023-03-08T17:36:12.365Z,15.70
2023-03-08T17:38:42.182Z,14.63
2023-03-08T17:41:11.489Z,15.03
2023-03-08T17:43:42.627Z,14.70
2023-03-08T17:46:13.448Z,14.23
2023-03-08T17:48:41.636Z,14.40
2023-03-08T17:51:15.394Z,18.55
2023-03-08T17:53:51.269Z,15.07
2023-03-08T17:56:25.423Z,14.70
2023-03-08T17:58:59.914Z,14.20
2023-03-08T18:01:28.972Z,13.97
2023-03-08T18:03:57.648Z,13.37
2023-03-08T18:06:28.829Z,14.03
2023-03-08T18:08:58.507Z,13.90
2023-03-08T18:11:27.034Z,14.27
2023-03-08T18:13:58.818Z,13.23
2023-03-08T18:16:34.335Z,13.93
2023-03-08T18:19:02.583Z,14.63
2023-03-08T18:21:31.610Z,16.03
2023-03-08T18:24:01.609Z,15.50
2023-03-08T18:26:29.903Z,16.07
2023-03-08T18:28:58.067Z,16.87
2023-03-08T18:31:30.866Z,16.80
2023-03-08T18:33:59.133Z,16.10
2023-03-08T18:36:27.346Z,15.50
2023-03-08T18:38:55.501Z,15.20
2023-03-08T18:41:27.042Z,14.33
2023-03-08T18:43:55.478Z,15.77
2023-03-08T18:46:28.480Z,15.13
2023-03-08T18:48:57.039Z,16.23
2023-03-08T18:51:25.263Z,16.40
2023-03-08T18:53:56.197Z,15.00
2023-03-08T18:56:30.423Z,14.80
2023-03-08T18:59:00.005Z,14.00
2023-03-08T19:01:30.480Z,14.13
2023-03-08T19:04:00.070Z,13.23
2023-03-08T19:06:31.316Z,14.37
2023-03-08T19:08:59.719Z,14.80
2023-03-08T19:11:30.235Z,15.60
2023-03-08T19:14:00.474Z,14.27
2023-03-08T19:16:30.060Z,14.63
2023-03-08T19:18:59.930Z,14.53
2023-03-08T19:21:29.121Z,14.67
2023-03-08T19:23:57.602Z,15.63
2023-03-08T19:26:37.640Z,14.63
2023-03-08T19:29:08.580Z,15.20
2023-03-08T19:31:37.538Z,15.23
2023-03-08T19:34:05.938Z,15.93
2023-03-08T19:36:35.380Z,16.53
2023-03-08T19:39:03.912Z,14.93
2023-03-08T19:41:32.096Z,15.33
2023-03-08T19:44:00.285Z,15.73
2023-03-08T19:46:29.807Z,16.07
2023-03-08T19:48:57.960Z,14.30
2023-03-08T19:51:26.161Z,14.57
2023-03-08T19:53:55.824Z,13.97
2023-03-08T19:56:24.928Z,15.60
2023-03-08T19:58:55.327Z,16.13
2023-03-08T20:01:23.530Z,15.70
2023-03-08T20:03:53.440Z,14.40
2023-03-08T20:06:24.957Z,14.37
2023-03-08T20:08:55.394Z,15.50
2023-03-08T20:11:23.546Z,14.70
2023-03-08T20:13:51.800Z,14.93
2023-03-08T20:16:20.716Z,14.87
2023-03-08T20:18:50.169Z,14.67
2023-03-08T20:21:20.386Z,15.27
2023-03-08T20:23:52.801Z,15.40
2023-03-08T20:26:20.938Z,14.40
2023-03-08T20:28:50.136Z,15.37
2023-03-08T20:31:18.523Z,15.00
2023-03-08T20:33:46.736Z,15.33
2023-03-08T20:36:14.932Z,17.53
2023-03-08T20:38:44.426Z,16.77
2023-03-08T20:41:15.760Z,15.63
2023-03-08T20:43:44.603Z,17.00
2023-03-08T20:46:13.707Z,18.27
2023-03-08T20:48:42.667Z,17.20
2023-03-08T20:51:12.752Z,17.47
2023-03-08T20:53:41.369Z,18.07
2023-03-08T20:56:13.336Z,17.77
2023-03-08T20:58:41.845Z,17.60
2023-03-08T21:01:13.470Z,18.00
2023-03-08T21:03:41.715Z,18.27
2023-03-08T21:06:14.199Z,16.57
2023-03-08T21:08:42.388Z,16.37
2023-03-08T21:11:12.027Z,15.97
2023-03-08T21:13:40.213Z,16.33
2023-03-08T21:16:09.775Z,15.50
2023-03-08T21:18:37.958Z,15.87
2023-03-08T21:21:06.444Z,15.87
2023-03-08T21:23:34.665Z,16.50
2023-03-08T21:26:02.909Z,16.90
2023-03-08T21:28:32.391Z,16.30
2023-03-08T21:31:00.601Z,16.40
2023-03-08T21:33:28.773Z,16.37
2023-03-08T21:35:58.440Z,15.87
2023-03-08T21:38:26.634Z,19.37
2023-03-08T21:40:54.909Z,23.60
2023-03-08T21:43:23.080Z,25.33
2023-03-08T21:45:52.620Z,23.00
2023-03-08T21:48:20.808Z,19.90
2023-03-08T21:50:49.013Z,18.23
2023-03-08T21:53:17.179Z,15.67
2023-03-08T21:55:45.353Z,13.70
2023-03-08T21:58:13.515Z,11.97
2023-03-08T22:00:41.729Z,11.87
2023-03-08T22:03:11.237Z,8.33
2023-03-08T22:05:39.370Z,9.20
2023-03-08T22:08:07.519Z,6.50
2023-03-08T22:10:35.698Z,5.73
2023-03-08T22:13:03.891Z,5.97
2023-03-08T22:15:32.063Z,5.30
2023-03-08T22:18:00.216Z,5.03
2023-03-08T22:20:29.711Z,5.10
2023-03-08T22:22:57.849Z,5.50
2023-03-08T22:25:25.985Z,4.90
2023-03-08T22:27:54.926Z,5.43
2023-03-08T22:30:23.204Z,5.50
2023-03-08T22:32:51.795Z,5.37
2023-03-08T22:35:21.134Z,4.60
2023-03-08T22:37:50.674Z,4.70
2023-03-08T22:40:19.364Z,5.10
2023-03-08T22:42:47.916Z,4.90
2023-03-08T22:45:16.209Z,5.03
2023-03-08T22:47:44.631Z,4.50
2023-03-08T22:50:13.316Z,4.63
2023-03-08T22:52:41.477Z,4.80
2023-03-08T22:55:11.753Z,3.93
2023-03-08T22:57:39.948Z,4.50
2023-03-08T23:00:14.162Z,4.37
2023-03-08T23:02:42.366Z,4.20
2023-03-08T23:05:13.098Z,3.80
2023-03-08T23:07:41.228Z,5.30
2023-03-08T23:10:11.895Z,4.90
2023-03-08T23:12:40.147Z,4.87
2023-03-08T23:15:09.312Z,4.50
2023-03-08T23:17:37.631Z,4.20
2023-03-08T23:20:06.608Z,3.97
2023-03-08T23:22:34.872Z,4.07
2023-03-08T23:25:03.068Z,4.03
2023-03-08T23:27:32.658Z,3.67
2023-03-08T23:30:00.809Z,3.93
2023-03-08T23:32:29.002Z,4.33
2023-03-08T23:34:57.253Z,4.03
2023-03-08T23:37:25.426Z,4.30
2023-03-08T23:39:53.578Z,3.90
2023-03-08T23:42:21.742Z,4.43
2023-03-08T23:44:51.284Z,4.30
2023-03-08T23:47:19.473Z,4.40
2023-03-08T23:49:49.801Z,3.80
2023-03-08T23:52:17.977Z,3.80
2023-03-08T23:54:46.178Z,4.00
2023-03-08T23:57:14.342Z,3.93
2023-03-08T23:59:42.498Z,4.23
